createdAt,value
2022-12-28T00:02:19.856Z,6.27
2022-12-28T00:04:48.802Z,6.35
2022-12-28T00:07:17.389Z,6.55
2022-12-28T00:09:45.875Z,6.34
2022-12-28T00:12:14.385Z,6.56
2022-12-28T00:14:42.899Z,6.51
2022-12-28T00:17:14.771Z,6.31
2022-12-28T00:19:44.648Z,6.15
2022-12-28T00:22:13.210Z,6.10
2022-12-28T00:24:41.681Z,5.93
2022-12-28T00:27:10.194Z,6.42
2022-12-28T00:29:38.737Z,6.08
2022-12-28T00:32:07.485Z,6.31
2022-12-28T00:34:36.079Z,6.67
2022-12-28T00:37:09.226Z,6.85
2022-12-28T00:39:39.903Z,6.22
2022-12-28T00:42:08.428Z,6.36
2022-12-28T00:44:36.936Z,6.43
2022-12-28T00:47:05.470Z,6.48
2022-12-28T00:49:33.963Z,6.24
2022-12-28T00:52:02.434Z,6.56
2022-12-28T00:54:32.258Z,6.28
2022-12-28T00:57:00.773Z,6.64
2022-12-28T00:59:29.272Z,6.89
2022-12-28T01:01:57.836Z,7.04
2022-12-28T01:04:26.428Z,6.83
2022-12-28T01:06:54.937Z,6.51
2022-12-28T01:09:23.430Z,5.98
2022-12-28T01:11:53.311Z,6.12
2022-12-28T01:14:21.781Z,6.28
2022-12-28T01:16:51.449Z,6.16
2022-12-28T01:19:22.933Z,6.34
2022-12-28T01:21:52.567Z,6.67
2022-12-28T01:24:21.248Z,6.03
2022-12-28T01:26:49.758Z,6.88
2022-12-28T01:29:19.584Z,6.49
2022-12-28T01:31:48.293Z,6.63
2022-12-28T01:34:16.853Z,6.14
2022-12-28T01:36:45.365Z,6.14
2022-12-28T01:39:13.919Z,6.41
2022-12-28T01:41:43.745Z,6.02
2022-12-28T01:44:45.961Z,6.42
2022-12-28T01:47:21.845Z,6.26
2022-12-28T01:49:59.147Z,6.25
2022-12-28T01:52:34.276Z,6.19
2022-12-28T01:55:08.254Z,6.29
2022-12-28T01:57:42.654Z,6.56
2022-12-28T02:00:15.682Z,6.36
2022-12-28T02:02:48.401Z,6.53
2022-12-28T02:05:17.581Z,6.65
2022-12-28T02:07:53.333Z,6.60
2022-12-28T02:10:42.410Z,6.71
2022-12-28T02:13:12.079Z,6.92
2022-12-28T02:15:41.983Z,6.71
2022-12-28T02:18:11.299Z,6.69
2022-12-28T02:20:55.308Z,6.69
2022-12-28T02:23:47.130Z,6.95
2022-12-28T02:26:46.046Z,6.94
2022-12-28T02:29:53.204Z,7.27
2022-12-28T02:32:36.249Z,6.84
2022-12-28T02:35:09.319Z,6.87
2022-12-28T02:37:45.104Z,6.83
2022-12-28T02:40:18.474Z,6.95
2022-12-28T02:42:47.659Z,6.95
2022-12-28T02:45:54.901Z,6.89
2022-12-28T02:48:42.627Z,6.83
2022-12-28T02:51:33.240Z,6.85
2022-12-28T02:54:35.289Z,6.99
2022-12-28T02:57:16.303Z,7.14
2022-12-28T03:00:04.635Z,7.12
2022-12-28T03:03:01.980Z,6.92
2022-12-28T03:06:07.841Z,7.07
2022-12-28T03:08:47.223Z,7.15
2022-12-28T03:11:20.752Z,7.22
2022-12-28T03:13:57.167Z,6.94
2022-12-28T03:16:32.769Z,6.92
2022-12-28T03:19:22.386Z,7.19
2022-12-28T03:22:14.426Z,7.21
2022-12-28T03:25:03.084Z,7.14
2022-12-28T03:27:51.642Z,7.28
2022-12-28T03:30:40.159Z,7.12
2022-12-28T03:33:11.707Z,7.42
2022-12-28T03:35:47.203Z,7.68
2022-12-28T03:38:27.647Z,7.61
2022-12-28T03:41:03.775Z,7.62
2022-12-28T03:43:41.320Z,7.49
2022-12-28T03:46:16.257Z,7.47
2022-12-28T03:48:47.515Z,7.46
2022-12-28T03:51:20.944Z,7.39
2022-12-28T03:53:51.004Z,7.26
2022-12-28T03:56:22.333Z,7.38
2022-12-28T03:58:51.118Z,7.40
2022-12-28T04:01:19.715Z,7.91
2022-12-28T04:03:48.651Z,7.94
2022-12-28T04:06:19.552Z,7.83
2022-12-28T04:08:48.765Z,7.68
2022-12-28T04:11:18.586Z,7.96
2022-12-28T04:13:47.083Z,7.85
2022-12-28T04:16:16.116Z,7.92
2022-12-28T04:18:44.933Z,7.94
2022-12-28T04:21:14.917Z,7.95
2022-12-28T04:23:44.838Z,8.06
2022-12-28T04:26:15.503Z,7.99
2022-12-28T04:28:45.624Z,7.94
2022-12-28T04:31:15.404Z,8.15
2022-12-28T04:33:43.973Z,8.03
2022-12-28T04:36:14.908Z,7.94
2022-12-28T04:38:43.745Z,8.04
2022-12-28T04:41:13.302Z,8.01
2022-12-28T04:43:41.815Z,8.12
2022-12-28T04:46:15.186Z,8.15
2022-12-28T04:48:43.848Z,8.07
2022-12-28T04:51:17.668Z,8.33
2022-12-28T04:53:46.479Z,7.84
2022-12-28T04:56:16.037Z,7.91
2022-12-28T04:58:46.910Z,8.14
2022-12-28T05:01:19.589Z,8.10
2022-12-28T05:03:55.524Z,8.25
2022-12-28T05:06:27.695Z,8.32
2022-12-28T05:08:57.401Z,8.38
2022-12-28T05:11:27.955Z,7.99
2022-12-28T05:13:56.869Z,7.92
2022-12-28T05:16:28.946Z,8.02
2022-12-28T05:18:57.855Z,8.32
2022-12-28T05:21:28.043Z,8.31
2022-12-28T05:23:57.384Z,8.16
2022-12-28T05:26:28.718Z,8.15
2022-12-28T05:28:58.638Z,8.09
2022-12-28T05:31:29.020Z,8.15
2022-12-28T05:33:57.572Z,8.23
2022-12-28T05:36:27.637Z,8.34
2022-12-28T05:38:57.826Z,8.26
2022-12-28T05:41:28.865Z,8.43
2022-12-28T05:43:58.198Z,8.43
2022-12-28T05:46:31.348Z,8.25
2022-12-28T05:49:00.617Z,8.26
2022-12-28T05:51:31.260Z,8.16
2022-12-28T05:54:01.164Z,8.00
2022-12-28T05:56:30.780Z,8.20
2022-12-28T05:59:01.322Z,8.25
2022-12-28T06:01:33.539Z,8.40
2022-12-28T06:04:04.973Z,8.14
2022-12-28T06:06:34.815Z,8.24
2022-12-28T06:09:04.040Z,8.20
2022-12-28T06:11:33.341Z,8.00
2022-12-28T06:14:03.703Z,7.86
2022-12-28T06:16:36.127Z,7.99
2022-12-28T06:19:07.409Z,7.93
2022-12-28T06:21:37.627Z,8.00
2022-12-28T06:24:08.085Z,8.12
2022-12-28T06:26:39.104Z,8.29
2022-12-28T06:29:07.956Z,8.20
2022-12-28T06:31:40.630Z,8.26
2022-12-28T06:34:11.041Z,7.99
2022-12-28T06:36:42.440Z,8.18
2022-12-28T06:39:13.185Z,8.46
2022-12-28T06:41:42.642Z,8.42
2022-12-28T06:44:13.689Z,8.55
2022-12-28T06:46:43.394Z,8.29
2022-12-28T06:49:11.649Z,8.04
2022-12-28T06:51:41.967Z,8.08
2022-12-28T06:54:11.602Z,8.02
2022-12-28T06:56:40.474Z,8.14
2022-12-28T06:59:09.385Z,8.23
2022-12-28T07:01:39.994Z,8.20
2022-12-28T07:04:10.906Z,8.09
2022-12-28T07:06:43.180Z,8.24
2022-12-28T07:09:14.276Z,8.33
2022-12-28T07:11:42.677Z,8.30
2022-12-28T07:14:11.170Z,8.58
2022-12-28T07:19:06.445Z,8.29
2022-12-28T07:21:38.752Z,8.37
2022-12-28T07:24:08.768Z,8.33
2022-12-28T07:26:38.707Z,8.23
2022-12-28T07:29:08.994Z,8.14
2022-12-28T07:31:45.301Z,8.35
2022-12-28T07:34:15.135Z,8.17
2022-12-28T07:36:44.926Z,8.32
2022-12-28T07:39:13.214Z,8.32
2022-12-28T07:41:41.503Z,8.23
2022-12-28T07:44:09.726Z,8.46
2022-12-28T07:46:38.920Z,8.55
2022-12-28T07:49:07.970Z,8.43
2022-12-28T07:51:38.746Z,8.12
2022-12-28T07:54:08.779Z,8.42
2022-12-28T07:59:06.623Z,8.47
2022-12-28T08:01:37.602Z,8.80
2022-12-28T08:04:09.210Z,8.56
2022-12-28T08:06:41.167Z,8.63
2022-12-28T08:09:13.294Z,8.47
2022-12-28T08:11:44.412Z,8.55
2022-12-28T08:14:13.631Z,8.55
2022-12-28T08:16:44.322Z,8.55
2022-12-28T08:19:13.633Z,8.73
2022-12-28T08:21:44.532Z,9.06
2022-12-28T08:24:18.618Z,8.98
2022-12-28T08:26:48.647Z,8.86
2022-12-28T08:29:20.083Z,8.95
2022-12-28T08:31:49.661Z,8.83
2022-12-28T08:34:26.633Z,8.92
2022-12-28T08:36:55.368Z,8.89
2022-12-28T08:39:25.095Z,8.90
2022-12-28T08:41:53.291Z,9.06
2022-12-28T08:44:21.510Z,8.82
2022-12-28T08:46:49.849Z,8.93
2022-12-28T08:49:18.203Z,8.77
2022-12-28T08:51:46.429Z,8.92
2022-12-28T08:54:14.992Z,8.90
2022-12-28T08:56:46.642Z,8.95
2022-12-28T08:59:17.673Z,9.01
2022-12-28T09:01:47.813Z,9.07
2022-12-28T09:04:21.411Z,9.24
2022-12-28T09:06:50.838Z,9.03
2022-12-28T09:09:20.999Z,9.15
2022-12-28T09:11:50.711Z,9.13
2022-12-28T09:14:23.695Z,9.17
2022-12-28T09:16:52.948Z,9.12
2022-12-28T09:19:22.039Z,9.29
2022-12-28T09:21:52.678Z,9.68
2022-12-28T09:24:21.119Z,9.34
2022-12-28T09:26:52.785Z,9.30
2022-12-28T09:29:21.379Z,9.36
2022-12-28T09:31:49.599Z,9.33
2022-12-28T09:37:07.068Z,9.36
2022-12-28T09:39:35.356Z,9.44
2022-12-28T09:42:14.204Z,9.52
2022-12-28T09:44:56.026Z,9.48
2022-12-28T09:47:31.545Z,9.41
2022-12-28T09:50:30.865Z,9.54
2022-12-28T09:53:26.715Z,9.33
2022-12-28T09:56:06.233Z,9.37
2022-12-28T09:58:42.957Z,9.30
2022-12-28T10:01:18.219Z,9.59
2022-12-28T10:03:48.110Z,9.72
2022-12-28T10:06:19.107Z,9.78
2022-12-28T10:08:50.563Z,9.75
2022-12-28T10:11:22.591Z,9.55
2022-12-28T10:13:57.833Z,9.54
2022-12-28T10:16:29.478Z,9.63
2022-12-28T10:18:58.113Z,9.45
2022-12-28T10:21:33.231Z,9.66
2022-12-28T10:26:51.426Z,9.75
2022-12-28T10:29:24.174Z,9.89
2022-12-28T10:32:01.899Z,9.85
2022-12-28T10:34:33.765Z,9.66
2022-12-28T10:37:14.043Z,9.72
2022-12-28T10:39:50.933Z,9.88
2022-12-28T10:42:25.220Z,9.85
2022-12-28T10:45:04.519Z,9.94
2022-12-28T10:47:36.537Z,9.90
2022-12-28T10:52:58.899Z,9.95
2022-12-28T10:55:32.052Z,9.99
2022-12-28T10:58:34.197Z,10.03
2022-12-28T11:01:07.279Z,10.02
2022-12-28T11:03:38.072Z,10.29
2022-12-28T11:06:12.193Z,10.17
2022-12-28T11:08:41.874Z,10.00
2022-12-28T11:11:20.435Z,10.10
2022-12-28T11:13:53.661Z,9.99
2022-12-28T11:16:23.598Z,10.08
2022-12-28T11:18:52.458Z,10.25
2022-12-28T11:21:22.669Z,10.01
2022-12-28T11:23:53.182Z,9.98
2022-12-28T11:26:22.710Z,10.21
2022-12-28T11:28:53.616Z,10.46
2022-12-28T11:31:29.797Z,10.22
2022-12-28T11:34:02.434Z,10.17
2022-12-28T11:36:33.171Z,10.10
2022-12-28T11:39:32.819Z,10.22
2022-12-28T11:42:37.273Z,10.08
2022-12-28T11:44:54.202Z,10.13
2022-12-28T11:47:33.526Z,10.32
2022-12-28T11:50:42.486Z,10.21
2022-12-28T11:53:48.532Z,10.26
2022-12-28T11:56:19.127Z,10.07
2022-12-28T11:59:03.473Z,10.08
2022-12-28T12:01:55.859Z,10.05
2022-12-28T12:04:40.821Z,10.27
2022-12-28T12:07:25.989Z,10.31
2022-12-28T12:10:38.883Z,10.24
2022-12-28T12:13:40.459Z,10.23
2022-12-28T12:16:20.113Z,10.34
2022-12-28T12:18:52.433Z,10.33
2022-12-28T12:21:32.601Z,10.11
2022-12-28T12:24:20.004Z,10.49
2022-12-28T12:26:53.745Z,10.54
2022-12-28T12:29:29.485Z,10.26
2022-12-28T12:32:02.069Z,10.33
2022-12-28T12:34:42.596Z,10.20
2022-12-28T12:37:44.362Z,10.24
2022-12-28T12:40:45.636Z,9.97
2022-12-28T12:43:31.201Z,10.09
2022-12-28T12:46:13.076Z,9.87
2022-12-28T12:49:10.171Z,9.80
2022-12-28T12:51:45.204Z,9.77
2022-12-28T12:54:33.222Z,9.81
2022-12-28T12:57:12.176Z,9.90
2022-12-28T13:00:10.680Z,10.01
2022-12-28T13:03:21.234Z,10.02
2022-12-28T13:05:55.081Z,9.84
2022-12-28T13:08:28.541Z,9.88
2022-12-28T13:10:57.446Z,9.81
2022-12-28T13:13:33.514Z,9.94
2022-12-28T13:16:05.706Z,9.93
2022-12-28T13:18:50.681Z,9.93
2022-12-28T13:21:22.595Z,9.73
2022-12-28T13:23:52.916Z,9.94
2022-12-28T13:26:28.145Z,9.99
2022-12-28T13:29:01.113Z,9.89
2022-12-28T13:31:42.209Z,10.06
2022-12-28T13:34:20.814Z,9.96
2022-12-28T13:36:50.929Z,9.93
2022-12-28T13:39:20.809Z,9.93
2022-12-28T13:41:52.747Z,10.07
2022-12-28T13:44:35.329Z,10.01
2022-12-28T13:47:10.448Z,10.23
2022-12-28T13:49:44.747Z,9.89
2022-12-28T13:52:19.389Z,10.24
2022-12-28T13:54:53.320Z,9.98
2022-12-28T14:00:13.064Z,10.40
2022-12-28T14:02:42.905Z,10.16
2022-12-28T14:05:20.846Z,10.11
2022-12-28T14:07:51.076Z,10.04
2022-12-28T14:10:20.899Z,10.16
2022-12-28T14:12:50.600Z,10.06
2022-12-28T14:15:19.777Z,9.89
2022-12-28T14:17:50.843Z,10.02
2022-12-28T14:20:20.713Z,9.95
2022-12-28T14:22:49.032Z,10.20
2022-12-28T14:25:20.035Z,10.12
2022-12-28T14:27:58.156Z,9.99
2022-12-28T14:30:31.679Z,10.18
2022-12-28T14:33:10.027Z,10.02
2022-12-28T14:35:50.149Z,9.98
2022-12-28T14:38:22.031Z,9.98
2022-12-28T14:40:55.820Z,10.05
2022-12-28T14:43:27.250Z,10.18
2022-12-28T14:46:05.432Z,10.08
2022-12-28T14:48:45.505Z,10.01
2022-12-28T14:51:31.203Z,10.19
2022-12-28T14:54:21.384Z,10.22
2022-12-28T14:56:55.255Z,10.33
2022-12-28T14:59:28.683Z,10.30
2022-12-28T15:01:57.100Z,10.34
2022-12-28T15:04:40.664Z,10.53
2022-12-28T15:07:11.954Z,10.46
2022-12-28T15:09:40.274Z,10.45
2022-12-28T15:12:14.266Z,10.31
2022-12-28T15:14:43.244Z,10.18
2022-12-28T15:17:12.091Z,10.14
2022-12-28T15:19:42.417Z,10.06
2022-12-28T15:22:12.506Z,10.19
2022-12-28T15:24:45.080Z,10.50
2022-12-28T15:27:13.607Z,10.32
2022-12-28T15:30:13.135Z,10.43
2022-12-28T15:32:30.498Z,10.26
2022-12-28T15:34:58.768Z,10.29
2022-12-28T15:37:28.366Z,10.11
2022-12-28T15:39:56.643Z,10.05
2022-12-28T15:42:24.936Z,10.05
2022-12-28T15:44:54.068Z,10.05
2022-12-28T15:47:23.458Z,10.27
2022-12-28T15:49:51.688Z,10.22
2022-12-28T15:52:19.956Z,10.13
2022-12-28T15:54:49.699Z,10.30
2022-12-28T15:57:17.964Z,10.08
2022-12-28T15:59:46.696Z,10.23
2022-12-28T16:02:15.136Z,10.21
2022-12-28T16:04:43.715Z,10.05
2022-12-28T16:07:12.021Z,10.20
2022-12-28T16:09:40.289Z,10.17
2022-12-28T16:12:10.039Z,10.30
2022-12-28T16:14:38.337Z,10.25
2022-12-28T16:17:06.560Z,10.30
2022-12-28T16:19:34.794Z,10.20
2022-12-28T16:22:03.084Z,10.02
2022-12-28T16:24:31.356Z,10.15
2022-12-28T16:26:59.583Z,10.11
2022-12-28T16:29:29.152Z,10.33
2022-12-28T16:32:00.857Z,10.21
2022-12-28T16:34:29.747Z,10.28
2022-12-28T16:36:59.462Z,10.14
2022-12-28T16:39:29.860Z,10.33
2022-12-28T16:41:58.748Z,10.26
2022-12-28T16:44:29.514Z,10.20
2022-12-28T16:46:59.502Z,10.31
2022-12-28T16:49:29.563Z,10.31
2022-12-28T16:54:30.596Z,10.18
2022-12-28T16:56:58.779Z,10.03
2022-12-28T16:59:29.784Z,9.77
2022-12-28T17:01:58.997Z,9.64
2022-12-28T17:04:27.789Z,9.54
2022-12-28T17:06:56.028Z,9.55
2022-12-28T17:09:24.261Z,9.47
2022-12-28T17:11:52.748Z,9.48
2022-12-28T17:14:36.325Z,9.58
2022-12-28T17:17:07.087Z,9.41
2022-12-28T17:19:36.143Z,9.57
2022-12-28T17:22:05.102Z,9.51
2022-12-28T17:24:33.487Z,9.27
2022-12-28T17:27:07.161Z,9.37
2022-12-28T17:29:37.377Z,9.31
2022-12-28T17:32:08.431Z,9.29
2022-12-28T17:34:36.835Z,9.05
2022-12-28T17:37:05.378Z,9.23
2022-12-28T17:39:39.535Z,9.20
2022-12-28T17:42:09.812Z,9.18
2022-12-28T17:44:38.124Z,9.23
2022-12-28T17:47:07.794Z,8.91
2022-12-28T17:49:36.049Z,8.98
2022-12-28T17:52:04.756Z,9.21
2022-12-28T17:54:33.492Z,9.02
2022-12-28T17:57:02.081Z,9.01
2022-12-28T17:59:30.728Z,9.39
2022-12-28T18:02:01.619Z,9.16
2022-12-28T18:04:31.748Z,9.22
2022-12-28T18:07:00.282Z,9.14
2022-12-28T18:09:28.799Z,8.84
2022-12-28T18:11:57.567Z,9.03
2022-12-28T18:14:26.495Z,8.82
2022-12-28T18:16:55.692Z,9.13
2022-12-28T18:19:24.223Z,9.11
2022-12-28T18:21:54.071Z,8.98
2022-12-28T18:24:22.704Z,8.92
2022-12-28T18:26:51.269Z,8.93
2022-12-28T18:29:19.797Z,9.02
2022-12-28T18:31:48.365Z,8.73
2022-12-28T18:34:16.836Z,9.00
2022-12-28T18:36:45.344Z,8.93
2022-12-28T18:39:15.205Z,8.95
2022-12-28T18:41:43.719Z,8.98
2022-12-28T18:44:12.388Z,8.66
2022-12-28T18:46:40.957Z,8.86
2022-12-28T18:49:09.468Z,8.60
2022-12-28T18:51:38.054Z,8.77
2022-12-28T18:54:06.638Z,9.06
2022-12-28T18:56:36.479Z,8.93
2022-12-28T18:59:05.027Z,8.87
2022-12-28T19:02:05.144Z,8.97
2022-12-28T19:04:22.505Z,8.66
2022-12-28T19:06:51.186Z,8.65
2022-12-28T19:09:19.742Z,8.67
2022-12-28T19:11:49.641Z,8.88
2022-12-28T19:14:18.420Z,8.78
2022-12-28T19:16:46.938Z,9.03
2022-12-28T19:19:16.975Z,8.64
2022-12-28T19:21:46.114Z,8.66
2022-12-28T19:24:15.927Z,8.67
2022-12-28T19:26:45.299Z,8.72
2022-12-28T19:29:16.572Z,8.78
2022-12-28T19:31:45.590Z,8.71
2022-12-28T19:34:14.273Z,8.42
2022-12-28T19:36:42.791Z,8.73
2022-12-28T19:39:11.822Z,8.77
2022-12-28T19:41:40.919Z,9.54
2022-12-28T19:44:09.415Z,9.80
2022-12-28T19:46:39.296Z,9.91
2022-12-28T19:49:07.502Z,10.08
2022-12-28T19:51:36.018Z,9.90
2022-12-28T19:54:04.634Z,10.58
2022-12-28T19:56:33.353Z,10.01
2022-12-28T19:59:06.587Z,9.61
2022-12-28T20:01:36.896Z,8.79
2022-12-28T20:04:13.482Z,8.98
2022-12-28T20:06:43.357Z,8.98
2022-12-28T20:09:12.751Z,9.02
2022-12-28T20:11:41.658Z,9.06
2022-12-28T20:14:12.945Z,9.27
2022-12-28T20:16:42.794Z,9.26
2022-12-28T20:19:13.563Z,9.19
2022-12-28T20:21:42.591Z,9.30
2022-12-28T20:24:13.565Z,9.30
2022-12-28T20:26:41.787Z,9.13
2022-12-28T20:29:10.016Z,9.39
2022-12-28T20:31:38.324Z,9.43
2022-12-28T20:34:06.572Z,9.47
2022-12-28T20:36:36.779Z,9.30
2022-12-28T20:39:05.507Z,9.45
2022-12-28T20:41:52.096Z,9.57
2022-12-28T20:44:25.852Z,9.37
2022-12-28T20:46:55.516Z,9.61
2022-12-28T20:49:25.451Z,9.81
2022-12-28T20:51:55.632Z,9.90
2022-12-28T20:54:25.023Z,10.11
2022-12-28T20:56:55.672Z,9.96
2022-12-28T20:59:24.839Z,10.05
2022-12-28T21:01:54.043Z,9.87
2022-12-28T21:04:24.427Z,9.83
2022-12-28T21:06:55.225Z,10.17
2022-12-28T21:09:23.939Z,10.25
2022-12-28T21:11:52.263Z,10.19
2022-12-28T21:14:20.679Z,10.10
2022-12-28T21:16:49.452Z,10.14
2022-12-28T21:19:17.810Z,10.23
2022-12-28T21:21:47.464Z,10.17
2022-12-28T21:24:17.050Z,10.27
2022-12-28T21:26:45.287Z,10.14
2022-12-28T21:29:13.504Z,10.28
2022-12-28T21:31:41.728Z,10.44
2022-12-28T21:34:10.297Z,10.42
2022-12-28T21:36:38.617Z,10.32
2022-12-28T21:39:06.837Z,10.49
2022-12-28T21:41:51.389Z,10.49
2022-12-28T21:44:21.675Z,10.45
2022-12-28T21:46:51.779Z,10.57
2022-12-28T21:49:20.566Z,10.60
2022-12-28T21:51:48.795Z,10.67
2022-12-28T21:54:19.316Z,10.50
2022-12-28T21:56:53.478Z,10.57
2022-12-28T21:59:22.753Z,10.54
2022-12-28T22:02:09.497Z,10.67
2022-12-28T22:05:02.128Z,10.56
2022-12-28T22:07:32.250Z,10.50
2022-12-28T22:10:17.794Z,10.37
2022-12-28T22:12:47.382Z,10.25
2022-12-28T22:15:35.867Z,10.24
2022-12-28T22:18:06.661Z,10.32
2022-12-28T22:20:37.111Z,10.52
2022-12-28T22:23:06.984Z,10.15
2022-12-28T22:25:36.609Z,10.32
2022-12-28T22:28:07.339Z,10.27
2022-12-28T22:30:37.474Z,10.34
2022-12-28T22:33:06.187Z,10.43
2022-12-28T22:35:35.024Z,10.48
2022-12-28T22:38:03.560Z,10.47
2022-12-28T22:40:32.077Z,10.60
2022-12-28T22:43:00.590Z,10.60
2022-12-28T22:45:30.512Z,10.46
2022-12-28T22:47:59.604Z,10.41
2022-12-28T22:50:29.398Z,10.29
2022-12-28T22:52:58.386Z,10.36
2022-12-28T22:55:27.107Z,10.38
2022-12-28T22:57:55.613Z,10.39
2022-12-28T23:00:24.183Z,10.37
2022-12-28T23:02:54.283Z,10.44
2022-12-28T23:05:22.913Z,10.49
2022-12-28T23:07:51.380Z,10.45
2022-12-28T23:10:20.041Z,10.56
2022-12-28T23:12:48.517Z,10.60
2022-12-28T23:15:16.429Z,10.56
2022-12-28T23:17:45.191Z,10.56
2022-12-28T23:20:32.917Z,10.60
2022-12-28T23:23:18.744Z,10.86
2022-12-28T23:26:05.065Z,10.73
2022-12-28T23:28:36.783Z,10.89
2022-12-28T23:31:05.846Z,10.80
2022-12-28T23:33:34.507Z,10.84
2022-12-28T23:36:05.589Z,11.00
2022-12-28T23:38:34.338Z,10.93
2022-12-28T23:41:25.203Z,10.92
2022-12-28T23:43:53.797Z,10.99
2022-12-28T23:46:22.396Z,10.97
2022-12-28T23:48:50.925Z,10.98
2022-12-28T23:51:20.801Z,10.90
2022-12-28T23:53:49.312Z,10.91
2022-12-28T23:56:17.878Z,10.72
2022-12-28T23:58:46.427Z,10.83
